createdAt,value
2023-05-16T00:00:02.061Z,1002.40
2023-05-16T00:01:02.094Z,1002.36
2023-05-16T00:02:02.066Z,1002.38
2023-05-16T00:03:02.111Z,1002.44
2023-05-16T00:04:02.065Z,1002.44
2023-05-16T00:05:02.049Z,1002.43
2023-05-16T00:06:02.032Z,1002.50
2023-05-16T00:07:01.992Z,1002.48
2023-05-16T00:08:01.989Z,1002.53
2023-05-16T00:09:01.973Z,1002.53
2023-05-16T00:10:02.031Z,1002.57
2023-05-16T00:11:01.975Z,1002.56
2023-05-16T00:12:01.923Z,1002.58
2023-05-16T00:13:02.151Z,1002.55
2023-05-16T00:14:01.906Z,1002.57
2023-05-16T00:15:01.943Z,1002.54
2023-05-16T00:16:01.872Z,1002.51
2023-05-16T00:17:01.995Z,1002.57
2023-05-16T00:18:02.025Z,1002.55
2023-05-16T00:19:01.911Z,1002.56
2023-05-16T00:20:01.861Z,1002.49
2023-05-16T00:21:01.822Z,1002.54
2023-05-16T00:22:01.817Z,1002.51
2023-05-16T00:23:01.818Z,1002.51
2023-05-16T00:24:01.816Z,1002.52
2023-05-16T00:25:01.786Z,1002.50
2023-05-16T00:26:01.752Z,1002.46
2023-05-16T00:27:01.752Z,1002.49
2023-05-16T00:28:01.754Z,1002.46
2023-05-16T00:29:01.764Z,1002.46
2023-05-16T00:30:01.712Z,1002.53
2023-05-16T00:31:01.718Z,1002.51
2023-05-16T00:32:01.713Z,1002.52
2023-05-16T00:33:01.782Z,1002.49
2023-05-16T00:34:01.764Z,1002.56
2023-05-16T00:35:01.675Z,1002.57
2023-05-16T00:36:01.653Z,1002.51
2023-05-16T00:37:01.663Z,1002.54
2023-05-16T00:38:01.704Z,1002.55
2023-05-16T00:39:01.627Z,1002.55
2023-05-16T00:40:01.625Z,1002.61
2023-05-16T00:41:01.620Z,1002.63
2023-05-16T00:42:01.616Z,1002.58
2023-05-16T00:43:01.601Z,1002.62
2023-05-16T00:44:01.558Z,1002.59
2023-05-16T00:45:01.547Z,1002.58
2023-05-16T00:46:01.576Z,1002.56
2023-05-16T00:47:01.560Z,1002.54
2023-05-16T00:48:01.541Z,1002.60
2023-05-16T00:49:01.526Z,1002.61
2023-05-16T00:50:01.533Z,1002.61
2023-05-16T00:51:01.492Z,1002.60
2023-05-16T00:52:01.509Z,1002.61
2023-05-16T00:53:01.469Z,1002.58
2023-05-16T00:54:01.492Z,1002.57
2023-05-16T00:55:01.481Z,1002.53
2023-05-16T00:56:01.420Z,1002.56
2023-05-16T00:57:01.481Z,1002.56
2023-05-16T00:58:01.449Z,1002.61
2023-05-16T00:59:01.417Z,1002.59
2023-05-16T01:00:01.386Z,1002.62
2023-05-16T01:01:01.429Z,1002.67
2023-05-16T01:02:01.484Z,1002.64
2023-05-16T01:03:01.476Z,1002.68
2023-05-16T01:04:01.581Z,1002.69
2023-05-16T01:05:01.345Z,1002.62
2023-05-16T01:06:01.356Z,1002.70
2023-05-16T01:07:01.285Z,1002.74
2023-05-16T01:08:01.311Z,1002.78
2023-05-16T01:09:01.306Z,1002.76
2023-05-16T01:10:01.284Z,1002.76
2023-05-16T01:11:01.319Z,1002.78
2023-05-16T01:12:01.274Z,1002.81
2023-05-16T01:13:01.247Z,1002.82
2023-05-16T01:14:01.223Z,1002.83
2023-05-16T01:15:01.264Z,1002.87
2023-05-16T01:16:01.273Z,1002.91
2023-05-16T01:17:01.182Z,1002.94
2023-05-16T01:18:01.209Z,1002.90
2023-05-16T01:19:01.233Z,1002.94
2023-05-16T01:20:01.227Z,1002.97
2023-05-16T01:21:01.150Z,1002.96
2023-05-16T01:22:01.152Z,1002.95
2023-05-16T01:23:01.132Z,1002.98
2023-05-16T01:24:01.127Z,1003.02
2023-05-16T01:25:01.162Z,1003.05
2023-05-16T01:26:01.114Z,1003.04
2023-05-16T01:27:01.089Z,1003.05
2023-05-16T01:28:01.091Z,1003.07
2023-05-16T01:29:01.090Z,1003.07
2023-05-16T01:30:01.084Z,1003.10
2023-05-16T01:31:01.138Z,1003.13
2023-05-16T01:32:01.128Z,1003.09
2023-05-16T01:33:01.096Z,1003.12
2023-05-16T01:34:01.028Z,1003.11
2023-05-16T01:35:00.997Z,1003.11
2023-05-16T01:36:00.997Z,1003.14
2023-05-16T01:37:00.972Z,1003.18
2023-05-16T01:38:00.987Z,1003.15
2023-05-16T01:39:00.992Z,1003.15
2023-05-16T01:40:00.948Z,1003.21
2023-05-16T01:41:00.929Z,1003.20
2023-05-16T01:42:00.926Z,1003.18
2023-05-16T01:43:00.937Z,1003.18
2023-05-16T01:44:00.943Z,1003.20
2023-05-16T01:45:00.886Z,1003.18
2023-05-16T01:46:00.857Z,1003.19
2023-05-16T01:47:00.924Z,1003.24
2023-05-16T01:48:00.906Z,1003.23
2023-05-16T01:49:00.865Z,1003.26
2023-05-16T01:50:00.833Z,1003.26
2023-05-16T01:51:00.839Z,1003.27
2023-05-16T01:52:00.835Z,1003.28
2023-05-16T01:53:00.832Z,1003.23
2023-05-16T01:54:00.793Z,1003.31
2023-05-16T01:55:00.804Z,1003.39
2023-05-16T01:56:00.752Z,1003.42
2023-05-16T01:57:00.745Z,1003.42
2023-05-16T01:58:00.770Z,1003.36
2023-05-16T01:59:00.739Z,1003.42
2023-05-16T02:00:00.740Z,1003.41
2023-05-16T02:01:00.724Z,1003.37
2023-05-16T02:02:00.736Z,1003.38
2023-05-16T02:03:00.749Z,1003.33
2023-05-16T02:04:00.726Z,1003.35
2023-05-16T02:05:00.667Z,1003.36
2023-05-16T02:06:00.652Z,1003.37
2023-05-16T02:07:00.663Z,1003.40
2023-05-16T02:08:00.622Z,1003.39
2023-05-16T02:09:00.592Z,1003.37
2023-05-16T02:10:00.615Z,1003.42
2023-05-16T02:11:00.583Z,1003.42
2023-05-16T02:12:00.624Z,1003.38
2023-05-16T02:13:00.589Z,1003.38
2023-05-16T02:14:00.553Z,1003.39
2023-05-16T02:15:00.555Z,1003.42
2023-05-16T02:16:00.578Z,1003.38
2023-05-16T02:17:00.634Z,1003.38
2023-05-16T02:18:00.578Z,1003.44
2023-05-16T02:19:00.520Z,1003.41
2023-05-16T02:20:00.492Z,1003.43
2023-05-16T02:21:00.502Z,1003.44
2023-05-16T02:22:00.451Z,1003.40
2023-05-16T02:23:00.441Z,1003.42
2023-05-16T02:24:00.444Z,1003.42
2023-05-16T02:25:00.430Z,1003.41
2023-05-16T02:26:00.470Z,1003.42
2023-05-16T02:27:00.404Z,1003.45
2023-05-16T02:28:00.406Z,1003.44
2023-05-16T02:29:00.380Z,1003.47
2023-05-16T02:30:00.454Z,1003.47
2023-05-16T02:31:00.427Z,1003.52
2023-05-16T02:32:00.362Z,1003.51
2023-05-16T02:33:00.413Z,1003.49
2023-05-16T02:34:00.322Z,1003.53
2023-05-16T02:35:00.354Z,1003.51
2023-05-16T02:36:00.298Z,1003.56
2023-05-16T02:37:00.277Z,1003.54
2023-05-16T02:38:00.284Z,1003.59
2023-05-16T02:39:00.264Z,1003.58
2023-05-16T02:40:00.302Z,1003.59
2023-05-16T02:41:00.243Z,1003.56
2023-05-16T02:42:00.231Z,1003.57
2023-05-16T02:43:00.217Z,1003.58
2023-05-16T02:44:00.212Z,1003.55
2023-05-16T02:45:00.272Z,1003.59
2023-05-16T02:46:00.225Z,1003.57
2023-05-16T02:47:00.184Z,1003.58
2023-05-16T02:48:00.222Z,1003.63
2023-05-16T02:49:00.168Z,1003.61
2023-05-16T02:50:00.177Z,1003.63
2023-05-16T02:51:00.132Z,1003.67
2023-05-16T02:52:00.138Z,1003.71
2023-05-16T02:53:00.137Z,1003.72
2023-05-16T02:54:00.159Z,1003.69
2023-05-16T02:55:16.840Z,1003.73
2023-05-16T02:56:01.090Z,1003.75
2023-05-16T02:57:00.063Z,1003.79
2023-05-16T02:58:00.122Z,1003.77
2023-05-16T02:59:00.077Z,1003.79
2023-05-16T03:00:00.047Z,1003.76
2023-05-16T03:01:00.028Z,1003.80
2023-05-16T03:02:00.085Z,1003.81
2023-05-16T03:03:00.106Z,1003.80
2023-05-16T03:04:00.085Z,1003.78
2023-05-16T03:05:00.020Z,1003.84
2023-05-16T03:05:59.976Z,1003.85
2023-05-16T03:06:59.966Z,1003.86
2023-05-16T03:07:59.975Z,1003.87
2023-05-16T03:08:59.935Z,1003.88
2023-05-16T03:09:59.945Z,1003.93
2023-05-16T03:10:59.918Z,1003.93
2023-05-16T03:11:59.914Z,1003.90
2023-05-16T03:12:59.936Z,1003.92
2023-05-16T03:14:01.675Z,1003.93
2023-05-16T03:14:59.864Z,1003.97
2023-05-16T03:15:59.900Z,1003.96
2023-05-16T03:16:59.873Z,1003.90
2023-05-16T03:17:59.932Z,1003.96
2023-05-16T03:18:59.892Z,1003.99
2023-05-16T03:19:59.806Z,1003.99
2023-05-16T03:20:59.770Z,1004.00
2023-05-16T03:21:59.821Z,1004.01
2023-05-16T03:22:59.782Z,1004.01
2023-05-16T03:23:59.806Z,1004.04
2023-05-16T03:24:59.754Z,1004.05
2023-05-16T03:25:59.736Z,1004.02
2023-05-16T03:26:59.759Z,1004.06
2023-05-16T03:27:59.720Z,1004.02
2023-05-16T03:28:59.703Z,1003.99
2023-05-16T03:29:59.704Z,1004.04
2023-05-16T03:30:59.717Z,1004.08
2023-05-16T03:31:59.761Z,1004.02
2023-05-16T03:32:59.690Z,1004.00
2023-05-16T03:33:59.652Z,1004.06
2023-05-16T03:34:59.644Z,1004.00
2023-05-16T03:35:59.673Z,1004.04
2023-05-16T03:36:59.619Z,1004.02
2023-05-16T03:37:59.619Z,1004.06
2023-05-16T03:38:59.605Z,1004.11
2023-05-16T03:39:59.608Z,1004.09
2023-05-16T03:40:59.613Z,1004.14
2023-05-16T03:41:59.590Z,1004.16
2023-05-16T03:42:59.551Z,1004.24
2023-05-16T03:43:59.521Z,1004.19
2023-05-16T03:44:59.585Z,1004.20
2023-05-16T03:45:59.590Z,1004.26
2023-05-16T03:46:59.504Z,1004.28
2023-05-16T03:47:59.523Z,1004.27
2023-05-16T03:48:59.481Z,1004.27
2023-05-16T03:49:59.538Z,1004.29
2023-05-16T03:50:59.467Z,1004.31
2023-05-16T03:51:59.445Z,1004.28
2023-05-16T03:52:59.442Z,1004.32
2023-05-16T03:53:59.417Z,1004.28
2023-05-16T03:54:59.450Z,1004.33
2023-05-16T03:55:59.427Z,1004.35
2023-05-16T03:56:59.393Z,1004.36
2023-05-16T03:57:59.380Z,1004.42
2023-05-16T03:58:59.398Z,1004.41
2023-05-16T03:59:59.387Z,1004.41
2023-05-16T04:00:59.343Z,1004.42
2023-05-16T04:01:59.373Z,1004.48
2023-05-16T04:02:59.336Z,1004.44
2023-05-16T04:03:59.353Z,1004.44
2023-05-16T04:04:59.307Z,1004.46
2023-05-16T04:05:59.350Z,1004.45
2023-05-16T04:06:59.269Z,1004.50
2023-05-16T04:07:59.277Z,1004.51
2023-05-16T04:08:59.289Z,1004.50
2023-05-16T04:09:59.261Z,1004.54
2023-05-16T04:10:59.238Z,1004.56
2023-05-16T04:11:59.223Z,1004.57
2023-05-16T04:12:59.239Z,1004.58
2023-05-16T04:13:59.259Z,1004.56
2023-05-16T04:14:59.206Z,1004.61
2023-05-16T04:15:59.194Z,1004.66
2023-05-16T04:16:59.174Z,1004.72
2023-05-16T04:17:59.271Z,1004.67
2023-05-16T04:18:59.212Z,1004.69
2023-05-16T04:19:59.140Z,1004.72
2023-05-16T04:20:59.129Z,1004.77
2023-05-16T04:21:59.107Z,1004.78
2023-05-16T04:22:59.112Z,1004.83
2023-05-16T04:23:59.090Z,1004.85
2023-05-16T04:24:59.073Z,1004.88
2023-05-16T04:25:59.063Z,1004.89
2023-05-16T04:26:59.048Z,1004.96
2023-05-16T04:27:59.098Z,1004.96
2023-05-16T04:29:00.206Z,1004.90
2023-05-16T04:29:59.024Z,1004.97
2023-05-16T04:30:59.057Z,1005.03
2023-05-16T04:31:59.054Z,1005.00
2023-05-16T04:32:59.038Z,1005.01
2023-05-16T04:33:58.977Z,1005.02
2023-05-16T04:34:58.966Z,1005.01
2023-05-16T04:35:58.952Z,1005.04
2023-05-16T04:36:58.970Z,1005.01
2023-05-16T04:37:58.962Z,1004.99
2023-05-16T04:38:58.917Z,1005.02
2023-05-16T04:39:58.956Z,1005.12
2023-05-16T04:40:58.910Z,1005.03
2023-05-16T04:41:58.945Z,1005.06
2023-05-16T04:42:58.881Z,1005.03
2023-05-16T04:43:58.877Z,1005.06
2023-05-16T04:44:58.856Z,1005.10
2023-05-16T04:45:58.951Z,1005.13
2023-05-16T04:46:58.975Z,1005.17
2023-05-16T04:47:58.876Z,1005.20
2023-05-16T04:48:58.799Z,1005.29
2023-05-16T04:49:58.896Z,1005.25
2023-05-16T04:50:58.803Z,1005.28
2023-05-16T04:51:58.804Z,1005.28
2023-05-16T04:52:58.788Z,1005.31
2023-05-16T04:53:58.732Z,1005.32
2023-05-16T04:54:58.734Z,1005.29
2023-05-16T04:55:58.749Z,1005.33
2023-05-16T04:56:58.714Z,1005.31
2023-05-16T04:57:58.706Z,1005.35
2023-05-16T04:58:58.687Z,1005.36
2023-05-16T04:59:58.682Z,1005.41
2023-05-16T05:01:01.695Z,1005.38
2023-05-16T05:01:58.672Z,1005.40
2023-05-16T05:02:58.713Z,1005.45
2023-05-16T05:03:58.657Z,1005.34
2023-05-16T05:04:58.750Z,1005.34
2023-05-16T05:05:58.649Z,1005.36
2023-05-16T05:06:58.639Z,1005.36
2023-05-16T05:07:58.605Z,1005.38
2023-05-16T05:08:58.589Z,1005.42
2023-05-16T05:09:58.593Z,1005.47
2023-05-16T05:10:58.557Z,1005.46
2023-05-16T05:11:58.543Z,1005.49
2023-05-16T05:12:58.538Z,1005.44
2023-05-16T05:13:58.511Z,1005.52
2023-05-16T05:14:58.556Z,1005.53
2023-05-16T05:15:58.482Z,1005.53
2023-05-16T05:16:58.515Z,1005.56
2023-05-16T05:17:58.609Z,1005.56
2023-05-16T05:18:58.606Z,1005.55
2023-05-16T05:20:00.026Z,1005.59
2023-05-16T05:20:58.461Z,1005.55
2023-05-16T05:21:58.450Z,1005.60
2023-05-16T05:22:58.404Z,1005.56
2023-05-16T05:23:58.419Z,1005.55
2023-05-16T05:24:58.454Z,1005.55
2023-05-16T05:25:58.376Z,1005.56
2023-05-16T05:26:58.382Z,1005.63
2023-05-16T05:27:58.355Z,1005.66
2023-05-16T05:29:05.113Z,1005.67
2023-05-16T05:29:59.347Z,1005.68
2023-05-16T05:30:58.348Z,1005.63
2023-05-16T05:31:58.388Z,1005.71
2023-05-16T05:32:58.357Z,1005.66
2023-05-16T05:33:58.352Z,1005.75
2023-05-16T05:34:58.282Z,1005.71
2023-05-16T05:35:58.275Z,1005.72
2023-05-16T05:36:58.246Z,1005.78
2023-05-16T05:37:58.277Z,1005.81
2023-05-16T05:38:58.288Z,1005.88
2023-05-16T05:39:58.221Z,1005.87
2023-05-16T05:40:58.237Z,1005.88
2023-05-16T05:41:58.215Z,1005.88
2023-05-16T05:42:58.205Z,1005.89
2023-05-16T05:43:58.183Z,1005.92
2023-05-16T05:44:58.179Z,1005.89
2023-05-16T05:45:58.242Z,1005.90
2023-05-16T05:46:58.158Z,1005.94
2023-05-16T05:47:58.190Z,1005.95
2023-05-16T05:48:58.130Z,1005.95
2023-05-16T05:49:58.130Z,1005.95
2023-05-16T05:50:58.097Z,1005.97
2023-05-16T05:51:58.088Z,1005.98
2023-05-16T05:52:58.103Z,1006.05
2023-05-16T05:53:58.053Z,1006.05
2023-05-16T05:54:58.052Z,1006.11
2023-05-16T05:55:58.040Z,1006.15
2023-05-16T05:56:58.079Z,1006.14
2023-05-16T05:57:58.046Z,1006.21
2023-05-16T05:58:58.029Z,1006.18
2023-05-16T05:59:58.016Z,1006.25
2023-05-16T06:00:57.986Z,1006.25
2023-05-16T06:01:58.123Z,1006.26
2023-05-16T06:02:58.042Z,1006.29
2023-05-16T06:03:59.216Z,1006.29
2023-05-16T06:04:57.972Z,1006.32
2023-05-16T06:05:58.163Z,1006.33
2023-05-16T06:06:57.945Z,1006.38
2023-05-16T06:07:57.934Z,1006.39
2023-05-16T06:08:57.933Z,1006.37
2023-05-16T06:09:57.905Z,1006.37
2023-05-16T06:10:57.902Z,1006.38
2023-05-16T06:11:57.933Z,1006.39
2023-05-16T06:12:57.855Z,1006.38
2023-05-16T06:13:57.842Z,1006.39
2023-05-16T06:14:57.803Z,1006.32
2023-05-16T06:15:57.866Z,1006.32
2023-05-16T06:16:57.851Z,1006.28
2023-05-16T06:17:57.817Z,1006.32
2023-05-16T06:18:57.897Z,1006.33
2023-05-16T06:19:57.767Z,1006.31
2023-05-16T06:20:57.775Z,1006.32
2023-05-16T06:21:57.772Z,1006.31
2023-05-16T06:22:57.808Z,1006.32
2023-05-16T06:23:57.747Z,1006.34
2023-05-16T06:24:57.742Z,1006.38
2023-05-16T06:25:57.714Z,1006.43
2023-05-16T06:26:57.695Z,1006.43
2023-05-16T06:27:57.682Z,1006.46
2023-05-16T06:28:57.661Z,1006.47
2023-05-16T06:29:57.680Z,1006.46
2023-05-16T06:30:57.703Z,1006.54
2023-05-16T06:31:57.818Z,1006.53
2023-05-16T06:32:57.682Z,1006.61
2023-05-16T06:33:57.645Z,1006.65
2023-05-16T06:34:57.644Z,1006.62
2023-05-16T06:35:57.605Z,1006.59
2023-05-16T06:36:57.586Z,1006.64
2023-05-16T06:37:57.556Z,1006.62
2023-05-16T06:38:57.571Z,1006.68
2023-05-16T06:39:57.603Z,1006.69
2023-05-16T06:40:57.527Z,1006.73
2023-05-16T06:41:57.533Z,1006.77
2023-05-16T06:42:57.492Z,1006.72
2023-05-16T06:43:57.540Z,1006.79
2023-05-16T06:44:57.509Z,1006.83
2023-05-16T06:45:57.485Z,1006.78
2023-05-16T06:46:57.628Z,1006.80
2023-05-16T06:47:57.732Z,1006.80
2023-05-16T06:48:57.471Z,1006.85
2023-05-16T06:49:57.455Z,1006.73
2023-05-16T06:50:57.405Z,1006.88
2023-05-16T06:51:57.421Z,1006.93
2023-05-16T06:52:57.424Z,1006.93
2023-05-16T06:53:57.425Z,1006.99
2023-05-16T06:54:57.447Z,1007.04
2023-05-16T06:55:57.380Z,1007.02
2023-05-16T06:56:57.351Z,1007.02
2023-05-16T06:57:57.377Z,1007.03
2023-05-16T06:58:57.374Z,1007.07
2023-05-16T06:59:57.328Z,1007.04
2023-05-16T07:00:57.368Z,1007.10
2023-05-16T07:01:57.451Z,1007.11
2023-05-16T07:02:57.437Z,1007.11
2023-05-16T07:03:57.398Z,1007.10
2023-05-16T07:04:57.271Z,1007.10
2023-05-16T07:05:57.283Z,1007.12
2023-05-16T07:06:57.323Z,1007.14
2023-05-16T07:07:57.254Z,1007.16
2023-05-16T07:08:57.280Z,1007.18
2023-05-16T07:09:57.190Z,1007.20
2023-05-16T07:10:57.184Z,1007.18
2023-05-16T07:11:57.194Z,1007.20
2023-05-16T07:12:57.231Z,1007.19
2023-05-16T07:13:57.160Z,1007.14
2023-05-16T07:14:57.154Z,1007.18
2023-05-16T07:15:57.141Z,1007.19
2023-05-16T07:16:57.196Z,1007.22
2023-05-16T07:17:57.188Z,1007.21
2023-05-16T07:18:57.163Z,1007.23
2023-05-16T07:19:57.102Z,1007.21
2023-05-16T07:20:57.089Z,1007.23
2023-05-16T07:21:57.105Z,1007.21
2023-05-16T07:22:57.084Z,1007.20
2023-05-16T07:23:57.057Z,1007.21
2023-05-16T07:24:57.044Z,1007.17
2023-05-16T07:25:57.085Z,1007.16
2023-05-16T07:26:57.054Z,1007.20
2023-05-16T07:27:57.013Z,1007.18
2023-05-16T07:28:56.998Z,1007.15
2023-05-16T07:29:56.989Z,1007.20
2023-05-16T07:30:57.014Z,1007.18
2023-05-16T07:31:57.062Z,1007.16
2023-05-16T07:33:01.531Z,1007.16
2023-05-16T07:33:56.933Z,1007.20
2023-05-16T07:34:56.917Z,1007.26
2023-05-16T07:36:08.120Z,1007.23
2023-05-16T07:36:57.918Z,1007.22
2023-05-16T07:37:56.880Z,1007.27
2023-05-16T07:38:56.861Z,1007.31
2023-05-16T07:39:56.866Z,1007.30
2023-05-16T07:40:56.896Z,1007.33
2023-05-16T07:41:56.874Z,1007.34
2023-05-16T07:42:56.822Z,1007.33
2023-05-16T07:43:56.827Z,1007.35
2023-05-16T07:44:56.879Z,1007.34
2023-05-16T07:45:56.810Z,1007.31
2023-05-16T07:46:56.792Z,1007.37
2023-05-16T07:47:56.939Z,1007.33
2023-05-16T07:48:56.771Z,1007.37
2023-05-16T07:49:56.773Z,1007.37
2023-05-16T07:50:56.753Z,1007.34
2023-05-16T07:51:56.723Z,1007.36
2023-05-16T07:52:56.696Z,1007.42
2023-05-16T07:53:56.730Z,1007.37
2023-05-16T07:54:56.739Z,1007.35
2023-05-16T07:55:56.679Z,1007.39
2023-05-16T07:56:56.660Z,1007.33
2023-05-16T07:57:56.663Z,1007.36
2023-05-16T07:58:56.746Z,1007.33
2023-05-16T07:59:56.628Z,1007.31
2023-05-16T08:00:56.624Z,1007.27
2023-05-16T08:01:56.646Z,1007.26
2023-05-16T08:02:56.673Z,1007.29
2023-05-16T08:03:56.707Z,1007.24
2023-05-16T08:04:56.668Z,1007.25
2023-05-16T08:05:56.601Z,1007.27
2023-05-16T08:06:56.559Z,1007.27
2023-05-16T08:07:56.528Z,1007.24
2023-05-16T08:08:56.542Z,1007.28
2023-05-16T08:09:56.500Z,1007.28
2023-05-16T08:10:56.482Z,1007.27
2023-05-16T08:11:56.484Z,1007.29
2023-05-16T08:12:56.533Z,1007.28
2023-05-16T08:13:56.515Z,1007.31
2023-05-16T08:14:56.439Z,1007.31
2023-05-16T08:15:56.505Z,1007.28
2023-05-16T08:16:56.411Z,1007.32
2023-05-16T08:17:56.581Z,1007.32
2023-05-16T08:18:56.522Z,1007.33
2023-05-16T08:19:56.403Z,1007.32
2023-05-16T08:20:56.408Z,1007.29
2023-05-16T08:21:56.386Z,1007.35
2023-05-16T08:22:56.404Z,1007.34
2023-05-16T08:23:56.354Z,1007.32
2023-05-16T08:24:56.354Z,1007.39
2023-05-16T08:25:56.338Z,1007.37
2023-05-16T08:26:56.414Z,1007.39
2023-05-16T08:27:56.393Z,1007.40
2023-05-16T08:28:56.341Z,1007.39
2023-05-16T08:29:57.170Z,1007.37
2023-05-16T08:30:56.289Z,1007.35
2023-05-16T08:31:56.386Z,1007.36
2023-05-16T08:32:56.310Z,1007.32
2023-05-16T08:33:56.248Z,1007.32
2023-05-16T08:34:56.246Z,1007.36
2023-05-16T08:35:56.246Z,1007.36
2023-05-16T08:36:56.256Z,1007.33
2023-05-16T08:37:56.182Z,1007.30
2023-05-16T08:38:56.188Z,1007.34
2023-05-16T08:39:56.171Z,1007.34
2023-05-16T08:40:57.079Z,1007.34
2023-05-16T08:41:56.224Z,1007.40
2023-05-16T08:42:56.151Z,1007.37
2023-05-16T08:43:56.168Z,1007.38
2023-05-16T08:44:56.161Z,1007.42
2023-05-16T08:45:56.207Z,1007.36
2023-05-16T08:46:56.149Z,1007.46
2023-05-16T08:47:56.187Z,1007.51
2023-05-16T08:48:56.099Z,1007.48
2023-05-16T08:49:57.044Z,1007.50
2023-05-16T08:50:56.156Z,1007.47
2023-05-16T08:51:56.065Z,1007.51
2023-05-16T08:52:56.067Z,1007.47
2023-05-16T08:53:56.048Z,1007.49
2023-05-16T08:55:09.069Z,1007.45
2023-05-16T08:55:57.088Z,1007.49
2023-05-16T08:56:56.004Z,1007.51
2023-05-16T08:57:55.968Z,1007.51
2023-05-16T08:58:55.976Z,1007.46
2023-05-16T08:59:58.620Z,1007.51
2023-05-16T09:00:56.053Z,1007.56
2023-05-16T09:01:55.929Z,1007.53
2023-05-16T09:02:55.967Z,1007.54
2023-05-16T09:03:55.980Z,1007.54
2023-05-16T09:04:55.972Z,1007.55
2023-05-16T09:05:55.901Z,1007.57
2023-05-16T09:06:55.905Z,1007.54
2023-05-16T09:07:55.861Z,1007.64
2023-05-16T09:08:55.888Z,1007.63
2023-05-16T09:09:55.889Z,1007.65
2023-05-16T09:10:55.824Z,1007.64
2023-05-16T09:11:55.808Z,1007.69
2023-05-16T09:12:55.845Z,1007.71
2023-05-16T09:13:55.834Z,1007.76
2023-05-16T09:14:55.908Z,1007.78
2023-05-16T09:15:55.767Z,1007.81
2023-05-16T09:16:56.473Z,1007.85
2023-05-16T09:17:55.910Z,1007.81
2023-05-16T09:18:55.875Z,1007.82
2023-05-16T09:19:55.720Z,1007.80
2023-05-16T09:20:55.724Z,1007.86
2023-05-16T09:21:55.714Z,1007.84
2023-05-16T09:22:55.697Z,1007.86
2023-05-16T09:23:55.733Z,1007.87
2023-05-16T09:24:55.667Z,1007.89
2023-05-16T09:25:55.698Z,1007.88
2023-05-16T09:26:55.687Z,1007.88
2023-05-16T09:27:55.693Z,1007.98
2023-05-16T09:28:55.714Z,1007.93
2023-05-16T09:29:55.633Z,1007.93
2023-05-16T09:30:55.718Z,1007.97
2023-05-16T09:31:55.596Z,1007.97
2023-05-16T09:32:55.628Z,1007.88
2023-05-16T09:33:55.614Z,1007.93
2023-05-16T09:34:55.595Z,1007.87
2023-05-16T09:35:55.564Z,1007.83
2023-05-16T09:36:55.582Z,1007.84
2023-05-16T09:37:55.550Z,1007.81
2023-05-16T09:38:55.536Z,1007.80
2023-05-16T09:39:55.525Z,1007.79
2023-05-16T09:40:55.536Z,1007.88
2023-05-16T09:41:55.521Z,1007.89
2023-05-16T09:42:55.525Z,1007.91
2023-05-16T09:43:55.459Z,1007.92
2023-05-16T09:44:55.466Z,1007.98
2023-05-16T09:45:55.486Z,1007.99
2023-05-16T09:46:55.536Z,1008.01
2023-05-16T09:47:55.497Z,1008.03
2023-05-16T09:48:55.416Z,1007.97
2023-05-16T09:49:55.419Z,1007.99
2023-05-16T09:50:56.374Z,1008.02
2023-05-16T09:51:55.443Z,1008.08
2023-05-16T09:52:55.369Z,1008.06
2023-05-16T09:53:55.358Z,1008.04
2023-05-16T09:54:55.334Z,1008.11
2023-05-16T09:55:55.393Z,1008.03
2023-05-16T09:56:55.362Z,1008.07
2023-05-16T09:57:55.332Z,1008.13
2023-05-16T09:58:55.303Z,1008.16
2023-05-16T09:59:55.309Z,1008.20
2023-05-16T10:00:55.316Z,1008.25
2023-05-16T10:01:55.320Z,1008.30
2023-05-16T10:02:55.369Z,1008.29
2023-05-16T10:03:55.452Z,1008.35
2023-05-16T10:04:55.235Z,1008.38
2023-05-16T10:05:55.280Z,1008.41
2023-05-16T10:06:55.224Z,1008.39
2023-05-16T10:07:55.195Z,1008.41
2023-05-16T10:08:55.214Z,1008.40
2023-05-16T10:09:55.235Z,1008.38
2023-05-16T10:10:55.194Z,1008.38
2023-05-16T10:11:55.193Z,1008.44
2023-05-16T10:12:55.126Z,1008.41
2023-05-16T10:13:55.172Z,1008.48
2023-05-16T10:14:55.208Z,1008.46
2023-05-16T10:15:55.107Z,1008.45
2023-05-16T10:16:55.115Z,1008.47
2023-05-16T10:17:55.179Z,1008.42
2023-05-16T10:18:55.150Z,1008.44
2023-05-16T10:19:55.098Z,1008.43
2023-05-16T10:20:55.033Z,1008.40
2023-05-16T10:21:55.025Z,1008.36
2023-05-16T10:22:55.022Z,1008.36
2023-05-16T10:23:55.069Z,1008.31
2023-05-16T10:24:55.062Z,1008.37
2023-05-16T10:25:54.991Z,1008.36
2023-05-16T10:26:55.002Z,1008.39
2023-05-16T10:27:54.978Z,1008.37
2023-05-16T10:28:55.006Z,1008.41
2023-05-16T10:29:55.278Z,1008.39
2023-05-16T10:30:54.913Z,1008.44
2023-05-16T10:31:54.994Z,1008.44
2023-05-16T10:32:54.921Z,1008.50
2023-05-16T10:33:54.919Z,1008.46
2023-05-16T10:34:54.894Z,1008.47
2023-05-16T10:35:54.890Z,1008.49
2023-05-16T10:36:54.881Z,1008.53
2023-05-16T10:37:54.917Z,1008.50
2023-05-16T10:38:54.909Z,1008.55
2023-05-16T10:39:54.854Z,1008.54
2023-05-16T10:40:54.835Z,1008.53
2023-05-16T10:41:54.990Z,1008.55
2023-05-16T10:42:54.850Z,1008.53
2023-05-16T10:43:54.797Z,1008.53
2023-05-16T10:45:04.965Z,1008.56
2023-05-16T10:45:55.807Z,1008.53
2023-05-16T10:46:54.740Z,1008.57
2023-05-16T10:47:54.819Z,1008.52
2023-05-16T10:48:56.511Z,1008.54
2023-05-16T10:49:54.732Z,1008.49
2023-05-16T10:50:54.712Z,1008.50
2023-05-16T10:51:54.730Z,1008.49
2023-05-16T10:52:54.758Z,1008.52
2023-05-16T10:53:54.867Z,1008.53
2023-05-16T10:54:54.665Z,1008.52
2023-05-16T10:55:54.672Z,1008.49
2023-05-16T10:56:54.689Z,1008.52
2023-05-16T10:57:54.635Z,1008.49
2023-05-16T10:58:54.662Z,1008.47
2023-05-16T10:59:56.088Z,1008.46
2023-05-16T11:00:54.631Z,1008.52
2023-05-16T11:01:54.790Z,1008.48
2023-05-16T11:02:54.691Z,1008.47
2023-05-16T11:03:54.611Z,1008.47
2023-05-16T11:04:54.578Z,1008.43
2023-05-16T11:05:54.557Z,1008.49
2023-05-16T11:06:54.636Z,1008.42
2023-05-16T11:07:54.538Z,1008.52
2023-05-16T11:08:54.527Z,1008.52
2023-05-16T11:09:54.540Z,1008.49
2023-05-16T11:10:54.546Z,1008.47
2023-05-16T11:11:54.527Z,1008.50
2023-05-16T11:12:54.455Z,1008.48
2023-05-16T11:13:54.459Z,1008.53
2023-05-16T11:14:54.455Z,1008.58
2023-05-16T11:15:54.495Z,1008.58
2023-05-16T11:16:54.500Z,1008.55
2023-05-16T11:17:54.582Z,1008.58
2023-05-16T11:18:54.467Z,1008.57
2023-05-16T11:19:54.401Z,1008.56
2023-05-16T11:20:54.392Z,1008.55
2023-05-16T11:21:54.376Z,1008.59
2023-05-16T11:22:54.365Z,1008.57
2023-05-16T11:23:54.352Z,1008.62
2023-05-16T11:24:54.394Z,1008.60
2023-05-16T11:25:54.370Z,1008.61
2023-05-16T11:26:54.336Z,1008.60
2023-05-16T11:27:54.307Z,1008.63
2023-05-16T11:28:54.282Z,1008.59
2023-05-16T11:29:54.333Z,1008.66
2023-05-16T11:30:54.358Z,1008.62
2023-05-16T11:31:54.382Z,1008.66
2023-05-16T11:32:54.234Z,1008.70
2023-05-16T11:33:54.235Z,1008.72
2023-05-16T11:34:54.251Z,1008.74
2023-05-16T11:36:01.357Z,1008.69
2023-05-16T11:36:55.222Z,1008.69
2023-05-16T11:37:54.181Z,1008.69
2023-05-16T11:38:54.211Z,1008.64
2023-05-16T11:39:54.227Z,1008.63
2023-05-16T11:40:54.127Z,1008.66
2023-05-16T11:41:54.166Z,1008.61
2023-05-16T11:42:54.133Z,1008.65
2023-05-16T11:43:54.149Z,1008.65
2023-05-16T11:44:54.111Z,1008.61
2023-05-16T11:45:54.089Z,1008.65
2023-05-16T11:46:54.142Z,1008.63
2023-05-16T11:47:54.100Z,1008.62
2023-05-16T11:48:54.086Z,1008.68
2023-05-16T11:49:54.061Z,1008.65
2023-05-16T11:50:54.063Z,1008.64
2023-05-16T11:51:54.036Z,1008.59
2023-05-16T11:52:54.453Z,1008.58
2023-05-16T11:53:54.019Z,1008.63
2023-05-16T11:54:53.986Z,1008.59
2023-05-16T11:55:55.876Z,1008.59
2023-05-16T11:56:54.018Z,1008.57
2023-05-16T11:57:53.997Z,1008.58
2023-05-16T11:58:53.922Z,1008.60
2023-05-16T11:59:53.922Z,1008.59
2023-05-16T12:00:53.924Z,1008.59
2023-05-16T12:01:53.899Z,1008.57
2023-05-16T12:02:54.049Z,1008.52
2023-05-16T12:03:54.086Z,1008.54
2023-05-16T12:04:53.906Z,1008.54